Shanghai Express — DPCK — position and weather

sailwx.info

Track history (hours):
 
Tides and Currents Weather Stations Pressure Air Temp Water Temp Dewpoint Dewpoint Depression Visibility Wind Speed Wind Dir Waves Ship Positions

Shanghai Express

Last reported at 2017-Feb-26 18:00 UTC. Time now 2017-Feb-27 14:21 UTC.
Position N 42°48' W 064°42'.

Length 320.6 m; beam 42.8 m; draft 14.5 m.

Type: Ship. MMSI: 211367460.

Wind from 260 at 16 knots

Barometer 1004.0 mb
Air temperature 6.0 ° C
Visibility: greater than 10.8 NM
Dewpoint 1.5 ° C
Water temperature 3.0 ° C

Date/timePositionNaut miles runAvg speedWind from/ knotsBaromVisibWave heightAir tempDewpointWater temp
2017-Feb-26 18:00N 42°48' W 064°42'22018.3 260 / 161004.010.8 6.0 1.5 3.0
2017-Feb-26 06:00N 40°24' W 068°24'11719.5 240 / 171000.0 0.1 10.010.0 7.0
2017-Feb-26 00:00N 39°12' W 070°24'21918.3 170 / 141000.1 0.0 13.513.511.0
2017-Feb-25 12:00N 37°06' W 074°12'8214.8 030 / 41008.010.8 17.015.416.0
2017-Feb-25 06:27N 36°53' W 075°54'8 9.4
2017-Feb-25 05:33N 36°57' W 076°02'1411.4
2017-Feb-25 04:18N 36°56' W 076°20'1 1.6
2017-Feb-25 03:31N 36°55' W 076°20'0 0.0
2017-Feb-24 21:33N 36°55' W 076°20'0 0.0
2017-Feb-24 20:33N 36°55' W 076°20'0 0.0
2017-Feb-24 16:31N 36°55' W 076°20'0 0.0
2017-Feb-24 15:25N 36°55' W 076°20'0 0.0
2017-Feb-24 14:31N 36°55' W 076°20'0 0.0
2017-Feb-24 12:30N 36°55' W 076°20'0 0.0
2017-Feb-24 07:28N 36°55' W 076°20'0 0.0
2017-Feb-24 06:33N 36°55' W 076°20'3 3.2
2017-Feb-24 05:33N 36°58' W 076°20'1212.5
2017-Feb-24 04:33N 36°58' W 076°05'10 9.6
2017-Feb-24 03:32N 36°54' W 075°53'22114.2
2017-Feb-23 12:00N 33°18' W 076°48'19217.9 120 / 201011.0 5.4 20.515.023.0
2017-Feb-23 01:16N 31°52' W 080°12'710.1
2017-Feb-23 00:33N 31°52' W 080°20'5 9.4
2017-Feb-23 00:00N 31°48' W 080°24'819.0 080 / 171009.6 5.4 19.016.716.0
2017-Feb-22 23:33N 31°54' W 080°31'9 9.5
2017-Feb-22 22:33N 31°57' W 080°42'1111.3
2017-Feb-22 21:33N 32°02' W 080°53'9 8.6
2017-Feb-22 20:33N 32°05' W 081°03'5 4.6
2017-Feb-22 19:33N 32°07' W 081°08'1 0.5
2017-Feb-22 18:28N 32°07' W 081°08'0 0.0
2017-Feb-22 17:09N 32°07' W 081°08'0 0.0
2017-Feb-22 16:33N 32°07' W 081°08'0 0.0
2017-Feb-22 15:33N 32°07' W 081°08'0 0.0
2017-Feb-22 14:30N 32°07' W 081°08'0 0.0
2017-Feb-22 13:29N 32°07' W 081°08'0 0.0
2017-Feb-22 12:31N 32°07' W 081°08'0 0.0
2017-Feb-22 11:30N 32°07' W 081°08'0 0.0
2017-Feb-22 10:30N 32°07' W 081°08'0 0.0
2017-Feb-22 09:29N 32°07' W 081°08'0 0.0
2017-Feb-22 08:29N 32°07' W 081°08'0 0.0
2017-Feb-22 07:29N 32°07' W 081°08'0 0.0
2017-Feb-22 06:28N 32°07' W 081°08'0 0.0
2017-Feb-22 05:28N 32°07' W 081°08'0 0.0
2017-Feb-22 04:33N 32°07' W 081°08'0 0.0
2017-Feb-22 03:33N 32°07' W 081°08'0 0.0
2017-Feb-22 02:33N 32°07' W 081°08'0 0.0
2017-Feb-22 01:21N 32°07' W 081°08'0 0.0
2017-Feb-22 00:33N 32°07' W 081°08'0 0.0
2017-Feb-21 23:32N 32°07' W 081°08'0 0.0
2017-Feb-21 22:32N 32°07' W 081°08'0 0.0
2017-Feb-21 21:31N 32°07' W 081°08'0 0.0
2017-Feb-21 20:31N 32°07' W 081°08'0 0.5
2017-Feb-21 19:33N 32°08' W 081°08'5 5.4
2017-Feb-21 18:33N 32°05' W 081°03'8 7.7
2017-Feb-21 17:33N 32°02' W 080°55'1312.5
2017-Feb-21 16:33N 31°57' W 080°41'7 6.5
2017-Feb-21 15:28N 31°56' W 080°33'6 6.2
2017-Feb-21 14:33N 31°57' W 080°27'9 7.9
2017-Feb-21 13:27N 31°59' W 080°17'6 6.1
2017-Feb-21 12:30N 31°60' W 080°10'22710.1
2017-Feb-20 14:04N 34°05' W 076°24'1519.8
2017-Feb-20 13:18N 34°16' W 076°10'1520.2
2017-Feb-20 12:33N 34°26' W 075°57'33118.4
2017-Feb-19 18:33N 39°42' W 073°52'4314.0
2017-Feb-19 15:29N 40°25' W 073°49'7 7.9
2017-Feb-19 14:33N 40°30' W 073°56'1211.8
2017-Feb-19 13:33N 40°39' W 074°06'2 2.4
2017-Feb-19 12:33N 40°40' W 074°08'0 0.0
2017-Feb-19 11:31N 40°40' W 074°08'0 0.0
2017-Feb-19 10:31N 40°40' W 074°08'0 0.0
2017-Feb-19 09:33N 40°40' W 074°08'0 0.0
2017-Feb-19 08:31N 40°40' W 074°08'0 0.0
2017-Feb-19 07:31N 40°40' W 074°08'0 0.0
2017-Feb-19 06:33N 40°40' W 074°08'0 0.0
2017-Feb-19 05:33N 40°40' W 074°08'0 0.0
2017-Feb-19 04:32N 40°40' W 074°08'0 0.0
2017-Feb-19 03:32N 40°40' W 074°08'0 0.0
2017-Feb-19 02:31N 40°40' W 074°08'0 0.0
2017-Feb-19 01:31N 40°40' W 074°08'0 0.0
2017-Feb-19 00:30N 40°40' W 074°08'0 0.0
2017-Feb-18 23:33N 40°40' W 074°08'0 0.0
2017-Feb-18 22:33N 40°40' W 074°08'0 0.0
2017-Feb-18 21:32N 40°40' W 074°08'0 0.0
2017-Feb-18 20:32N 40°41' W 074°08'0 0.0
2017-Feb-18 19:31N 40°40' W 074°08'0 0.1
2017-Feb-18 18:31N 40°41' W 074°09'0 0.1
2017-Feb-18 17:31N 40°40' W 074°08'0 0.0
2017-Feb-18 16:31N 40°40' W 074°08'0 0.0
2017-Feb-18 15:33N 40°40' W 074°08'0 0.0
2017-Feb-18 14:32N 40°40' W 074°08'0 0.0
2017-Feb-18 13:31N 40°40' W 074°08'0 0.1
2017-Feb-18 12:34N 40°41' W 074°08'0 0.1
2017-Feb-18 11:33N 40°40' W 074°08'2 1.8
2017-Feb-18 10:33N 40°39' W 074°09'5 4.8
2017-Feb-18 09:33N 40°37' W 074°03'9 9.0
2017-Feb-18 08:33N 40°30' W 073°56'9 8.6
2017-Feb-18 07:33N 40°27' W 073°45'  
Track history (hours):
 
Tides and Currents Weather Stations Pressure Air Temp Water Temp Dewpoint Dewpoint Depression Visibility Wind Speed Wind Dir Waves Ship Positions

Shanghai Express

Last reported at 2017-Feb-26 18:00 UTC. Time now 2017-Feb-27 14:21 UTC.
Position N 42°48' W 064°42'.

Length 320.6 m; beam 42.8 m; draft 14.5 m.

Type: Ship. MMSI: 211367460.

Wind from 260 at 16 knots

Barometer 1004.0 mb
Air temperature 6.0 ° C
Visibility: greater than 10.8 NM
Dewpoint 1.5 ° C
Water temperature 3.0 ° C

Date/timePositionNaut miles runAvg speedWind from/ knotsBaromVisibWave heightAir tempDewpointWater temp
2017-Feb-26 18:00N 42°48' W 064°42'22018.3 260 / 161004.010.8 6.0 1.5 3.0
2017-Feb-26 06:00N 40°24' W 068°24'11719.5 240 / 171000.0 0.1 10.010.0 7.0
2017-Feb-26 00:00N 39°12' W 070°24'21918.3 170 / 141000.1 0.0 13.513.511.0
2017-Feb-25 12:00N 37°06' W 074°12'8214.8 030 / 41008.010.8 17.015.416.0
2017-Feb-25 06:27N 36°53' W 075°54'8 9.4
2017-Feb-25 05:33N 36°57' W 076°02'1411.4
2017-Feb-25 04:18N 36°56' W 076°20'1 1.6
2017-Feb-25 03:31N 36°55' W 076°20'0 0.0
2017-Feb-24 21:33N 36°55' W 076°20'0 0.0
2017-Feb-24 20:33N 36°55' W 076°20'0 0.0
2017-Feb-24 16:31N 36°55' W 076°20'0 0.0
2017-Feb-24 15:25N 36°55' W 076°20'0 0.0
2017-Feb-24 14:31N 36°55' W 076°20'0 0.0
2017-Feb-24 12:30N 36°55' W 076°20'0 0.0
2017-Feb-24 07:28N 36°55' W 076°20'0 0.0
2017-Feb-24 06:33N 36°55' W 076°20'3 3.2
2017-Feb-24 05:33N 36°58' W 076°20'1212.5
2017-Feb-24 04:33N 36°58' W 076°05'10 9.6
2017-Feb-24 03:32N 36°54' W 075°53'22114.2
2017-Feb-23 12:00N 33°18' W 076°48'19217.9 120 / 201011.0 5.4 20.515.023.0
2017-Feb-23 01:16N 31°52' W 080°12'710.1
2017-Feb-23 00:33N 31°52' W 080°20'5 9.4
2017-Feb-23 00:00N 31°48' W 080°24'819.0 080 / 171009.6 5.4 19.016.716.0
2017-Feb-22 23:33N 31°54' W 080°31'9 9.5
2017-Feb-22 22:33N 31°57' W 080°42'1111.3
2017-Feb-22 21:33N 32°02' W 080°53'9 8.6
2017-Feb-22 20:33N 32°05' W 081°03'5 4.6
2017-Feb-22 19:33N 32°07' W 081°08'1 0.5
2017-Feb-22 18:28N 32°07' W 081°08'0 0.0
2017-Feb-22 17:09N 32°07' W 081°08'0 0.0
2017-Feb-22 16:33N 32°07' W 081°08'0 0.0
2017-Feb-22 15:33N 32°07' W 081°08'0 0.0
2017-Feb-22 14:30N 32°07' W 081°08'0 0.0
2017-Feb-22 13:29N 32°07' W 081°08'0 0.0
2017-Feb-22 12:31N 32°07' W 081°08'0 0.0
2017-Feb-22 11:30N 32°07' W 081°08'0 0.0
2017-Feb-22 10:30N 32°07' W 081°08'0 0.0
2017-Feb-22 09:29N 32°07' W 081°08'0 0.0
2017-Feb-22 08:29N 32°07' W 081°08'0 0.0
2017-Feb-22 07:29N 32°07' W 081°08'0 0.0
2017-Feb-22 06:28N 32°07' W 081°08'0 0.0
2017-Feb-22 05:28N 32°07' W 081°08'0 0.0
2017-Feb-22 04:33N 32°07' W 081°08'0 0.0
2017-Feb-22 03:33N 32°07' W 081°08'0 0.0
2017-Feb-22 02:33N 32°07' W 081°08'0 0.0
2017-Feb-22 01:21N 32°07' W 081°08'0 0.0
2017-Feb-22 00:33N 32°07' W 081°08'0 0.0
2017-Feb-21 23:32N 32°07' W 081°08'0 0.0
2017-Feb-21 22:32N 32°07' W 081°08'0 0.0
2017-Feb-21 21:31N 32°07' W 081°08'0 0.0
2017-Feb-21 20:31N 32°07' W 081°08'0 0.5
2017-Feb-21 19:33N 32°08' W 081°08'5 5.4
2017-Feb-21 18:33N 32°05' W 081°03'8 7.7
2017-Feb-21 17:33N 32°02' W 080°55'1312.5
2017-Feb-21 16:33N 31°57' W 080°41'7 6.5
2017-Feb-21 15:28N 31°56' W 080°33'6 6.2
2017-Feb-21 14:33N 31°57' W 080°27'9 7.9
2017-Feb-21 13:27N 31°59' W 080°17'6 6.1
2017-Feb-21 12:30N 31°60' W 080°10'22710.1
2017-Feb-20 14:04N 34°05' W 076°24'1519.8
2017-Feb-20 13:18N 34°16' W 076°10'1520.2
2017-Feb-20 12:33N 34°26' W 075°57'33118.4
2017-Feb-19 18:33N 39°42' W 073°52'4314.0
2017-Feb-19 15:29N 40°25' W 073°49'7 7.9
2017-Feb-19 14:33N 40°30' W 073°56'1211.8
2017-Feb-19 13:33N 40°39' W 074°06'2 2.4
2017-Feb-19 12:33N 40°40' W 074°08'0 0.0
2017-Feb-19 11:31N 40°40' W 074°08'0 0.0
2017-Feb-19 10:31N 40°40' W 074°08'0 0.0
2017-Feb-19 09:33N 40°40' W 074°08'0 0.0
2017-Feb-19 08:31N 40°40' W 074°08'0 0.0
2017-Feb-19 07:31N 40°40' W 074°08'0 0.0
2017-Feb-19 06:33N 40°40' W 074°08'0 0.0
2017-Feb-19 05:33N 40°40' W 074°08'0 0.0
2017-Feb-19 04:32N 40°40' W 074°08'0 0.0
2017-Feb-19 03:32N 40°40' W 074°08'0 0.0
2017-Feb-19 02:31N 40°40' W 074°08'0 0.0
2017-Feb-19 01:31N 40°40' W 074°08'0 0.0
2017-Feb-19 00:30N 40°40' W 074°08'0 0.0
2017-Feb-18 23:33N 40°40' W 074°08'0 0.0
2017-Feb-18 22:33N 40°40' W 074°08'0 0.0
2017-Feb-18 21:32N 40°40' W 074°08'0 0.0
2017-Feb-18 20:32N 40°41' W 074°08'0 0.0
2017-Feb-18 19:31N 40°40' W 074°08'0 0.1
2017-Feb-18 18:31N 40°41' W 074°09'0 0.1
2017-Feb-18 17:31N 40°40' W 074°08'0 0.0
2017-Feb-18 16:31N 40°40' W 074°08'0 0.0
2017-Feb-18 15:33N 40°40' W 074°08'0 0.0
2017-Feb-18 14:32N 40°40' W 074°08'0 0.0
2017-Feb-18 13:31N 40°40' W 074°08'0 0.1
2017-Feb-18 12:34N 40°41' W 074°08'0 0.1
2017-Feb-18 11:33N 40°40' W 074°08'2 1.8
2017-Feb-18 10:33N 40°39' W 074°09'5 4.8
2017-Feb-18 09:33N 40°37' W 074°03'9 9.0
2017-Feb-18 08:33N 40°30' W 073°56'9 8.6
2017-Feb-18 07:33N 40°27' W 073°45'  

Dump ship's entire track history